Details for AirAsia Thailand at VTBD




Go Back


Latest METAR
Local Time

VTBD 211430Z 17006KT 9999 FEW025 29/24 Q1009 NOSIG

21/02/2018, 21:59:00

Description
Results
AirAsia Thailand Logo
Number of Pilots based at VTBD
0 Pilots Based here
Number of AirAsia Thailand Flights Departed from VTBD
0 Flights Departed
Number of AirAsia Thailand Flights Arrived at VTBD
0 Flights Arrived
Number of AirAsia Thailand Schedules Departing from VTBD
150 Schedules
Number of AirAsia Thailand Schedules Arriving at VTBD
151 Schedules
Number of AirAsia Thailand Schedules Departing from VTBD availible today
141 Schedules Today
Number of AirAsia Thailand Schedules Arriving at VTBD availible today
140 Schedules Today
Average Landing Rate at VTBD
0 fpm
AirAsia Thailand Average Landing Rate at VTBD
0 fpm
Total Fuel Purchased at VTBD by AirAsia Thailand
0.00 kgs / 0.00 lbs

Pilots Based at VTBD


Pilot ID
Pilot Name
Pilot Rank
No. of Flights
No. of Flying Hours
There are no pilots assigned to this hub!   Will you be the first?
Content